滑走路面状態の提供について(国交省資料)
 
History
RJCC 070000Z VRB02KT 9999 FEW020 BKN/// 07/05 Q1023

TAF RJCC 062305Z 0700/0806 03004KT 9999 FEW020 SCT040   
     BECMG 0700/0702 17005KT   
     BECMG 0712/0715 34004KT   
     BECMG 0800/0803 35014KT
UD: 04/11 19:34